createdAt,value
2023-05-20T00:01:43.159Z,99080.03
2023-05-20T00:04:28.605Z,99049.84
2023-05-20T00:07:14.243Z,99043.06
2023-05-20T00:09:59.895Z,99087.59
2023-05-20T00:12:45.786Z,99078.75
2023-05-20T00:15:32.248Z,99045.88
2023-05-20T00:18:18.149Z,99074.34
2023-05-20T00:21:03.431Z,99092.13
2023-05-20T00:23:48.731Z,98962.09
2023-05-20T00:26:34.112Z,99083.91
2023-05-20T00:29:23.040Z,99084.66
2023-05-20T00:32:08.411Z,99090.22
2023-05-20T00:35:01.103Z,99106.94
2023-05-20T00:37:46.753Z,98925.81
2023-05-20T00:40:31.884Z,98945.91
2023-05-20T00:43:17.265Z,99084.66
2023-05-20T00:46:02.597Z,99003.38
2023-05-20T00:48:48.195Z,99049.63
2023-05-20T00:51:35.233Z,98963.06
2023-05-20T00:54:21.974Z,99074.22
2023-05-20T00:57:08.143Z,99081.00
2023-05-20T00:59:54.226Z,99087.19
2023-05-20T01:02:39.880Z,99062.06
2023-05-20T01:05:25.751Z,99047.97
2023-05-20T01:08:11.035Z,99097.25
2023-05-20T01:11:05.303Z,99043.94
2023-05-20T01:13:55.742Z,99080.78
2023-05-20T01:16:43.521Z,99011.34
2023-05-20T01:19:38.365Z,98984.84
2023-05-20T01:22:26.853Z,99077.44
2023-05-20T01:25:12.406Z,99071.56
2023-05-20T01:27:58.209Z,98914.50
2023-05-20T01:30:50.945Z,99071.03
2023-05-20T01:33:37.877Z,99036.28
2023-05-20T01:36:24.043Z,99064.88
2023-05-20T01:39:09.926Z,99069.84
2023-05-20T01:41:56.054Z,98914.00
2023-05-20T01:44:41.898Z,98934.91
2023-05-20T01:47:27.522Z,99055.91
2023-05-20T01:50:12.915Z,99070.81
2023-05-20T01:52:59.294Z,99061.69
2023-05-20T01:55:44.555Z,99082.13
2023-05-20T01:58:30.626Z,99069.78
2023-05-20T02:01:15.991Z,99081.09
2023-05-20T02:04:02.345Z,99043.44
2023-05-20T02:06:49.398Z,99072.09
2023-05-20T02:09:34.892Z,98912.53
2023-05-20T02:12:21.394Z,98999.59
2023-05-20T02:15:07.229Z,98986.78
2023-05-20T02:17:53.875Z,98958.31
2023-05-20T02:20:39.678Z,98960.38
2023-05-20T02:23:25.108Z,99053.88
2023-05-20T02:26:10.330Z,98938.88
2023-05-20T02:28:55.844Z,98923.72
2023-05-20T02:31:41.192Z,99077.00
2023-05-20T02:34:27.714Z,98921.84
2023-05-20T02:37:13.160Z,99030.47
2023-05-20T02:39:58.392Z,99048.16
2023-05-20T02:42:43.738Z,99109.47
2023-05-20T02:45:29.317Z,98891.78
2023-05-20T02:48:15.070Z,99069.66
2023-05-20T02:51:00.419Z,99094.53
2023-05-20T02:53:46.420Z,99094.84
2023-05-20T02:56:32.587Z,98941.41
2023-05-20T02:59:20.667Z,99099.28
2023-05-20T03:02:06.135Z,98985.84
2023-05-20T03:04:54.061Z,98929.22
2023-05-20T03:07:39.768Z,99101.16
2023-05-20T03:10:25.551Z,99093.38
2023-05-20T03:13:11.747Z,98942.13
2023-05-20T03:15:57.493Z,98989.28
2023-05-20T03:18:42.965Z,99064.59
2023-05-20T03:21:29.280Z,99080.22
2023-05-20T03:24:14.965Z,99075.50
2023-05-20T03:27:00.400Z,98972.31
2023-05-20T03:29:45.514Z,99063.28
2023-05-20T03:32:31.992Z,99048.69
2023-05-20T03:35:17.685Z,98984.03
2023-05-20T03:38:03.131Z,99092.16
2023-05-20T03:40:49.569Z,99100.94
2023-05-20T03:43:35.349Z,98990.28
2023-05-20T03:46:20.850Z,99104.94
2023-05-20T03:49:06.220Z,98974.06
2023-05-20T03:51:51.548Z,99110.84
2023-05-20T03:54:37.614Z,99080.06
2023-05-20T03:57:24.524Z,99075.09
2023-05-20T04:00:12.085Z,98964.31
2023-05-20T04:03:02.133Z,99112.63
2023-05-20T04:05:47.905Z,99109.34
2023-05-20T04:08:38.304Z,99121.16
2023-05-20T04:11:24.163Z,99118.53
2023-05-20T04:14:11.192Z,99117.81
2023-05-20T04:16:57.494Z,98982.13
2023-05-20T04:19:45.063Z,98968.03
2023-05-20T04:22:31.420Z,99091.13
2023-05-20T04:25:17.178Z,98971.00
2023-05-20T04:28:02.826Z,98986.72
2023-05-20T04:30:48.340Z,99134.44
2023-05-20T04:33:37.858Z,99136.22
2023-05-20T04:36:28.736Z,99131.09
2023-05-20T04:39:15.607Z,99135.81
2023-05-20T04:42:02.927Z,99095.66
2023-05-20T04:44:48.849Z,98984.72
2023-05-20T04:47:38.728Z,99078.47
2023-05-20T04:50:24.504Z,98993.41
2023-05-20T04:53:09.904Z,99135.59
2023-05-20T04:55:56.860Z,99110.88
2023-05-20T04:58:42.747Z,99032.88
2023-05-20T05:01:28.134Z,99151.47
2023-05-20T05:04:13.901Z,99140.59
2023-05-20T05:06:59.292Z,99029.16
2023-05-20T05:09:44.611Z,99105.44
2023-05-20T05:12:30.805Z,98990.66
2023-05-20T05:15:17.348Z,99135.91
2023-05-20T05:18:03.182Z,99019.47
2023-05-20T05:20:49.090Z,98989.44
2023-05-20T05:23:34.986Z,99000.38
2023-05-20T05:26:20.980Z,99142.69
2023-05-20T05:29:06.334Z,99002.47
2023-05-20T05:31:52.072Z,99135.78
2023-05-20T05:34:38.025Z,99137.88
2023-05-20T05:37:23.222Z,99027.06
2023-05-20T05:40:09.304Z,98994.88
2023-05-20T05:42:55.316Z,99154.31
2023-05-20T05:45:42.458Z,99148.75
2023-05-20T05:48:28.279Z,99060.81
2023-05-20T05:51:15.144Z,99138.38
2023-05-20T05:54:00.751Z,99035.56
2023-05-20T05:56:46.203Z,99036.38
2023-05-20T05:59:31.947Z,99027.88
2023-05-20T06:02:17.637Z,99160.97
2023-05-20T06:05:04.351Z,99146.44
2023-05-20T06:07:50.651Z,99121.59
2023-05-20T06:10:37.231Z,99143.28
2023-05-20T06:13:23.265Z,99156.81
2023-05-20T06:16:09.593Z,99021.50
2023-05-20T06:18:57.889Z,99158.13
2023-05-20T06:21:43.961Z,99151.31
2023-05-20T06:24:30.291Z,99017.66
2023-05-20T06:27:16.540Z,99150.44
2023-05-20T06:30:02.245Z,99023.19
2023-05-20T06:32:48.712Z,99011.25
2023-05-20T06:35:35.396Z,99022.97
2023-05-20T06:38:22.412Z,99129.56
2023-05-20T06:41:08.415Z,99036.25
2023-05-20T06:43:53.880Z,99057.88
2023-05-20T06:46:58.058Z,99117.34
2023-05-20T06:49:46.592Z,99009.56
2023-05-20T06:52:32.730Z,99087.19
2023-05-20T06:55:18.635Z,99149.91
2023-05-20T06:58:04.380Z,99141.88
2023-05-20T07:00:51.089Z,99128.53
2023-05-20T07:03:38.441Z,99114.63
2023-05-20T07:06:24.253Z,99143.56
2023-05-20T07:09:10.079Z,99095.13
2023-05-20T07:11:56.860Z,99141.03
2023-05-20T07:14:43.177Z,99098.94
2023-05-20T07:17:29.473Z,99019.09
2023-05-20T07:20:14.657Z,99094.81
2023-05-20T07:23:01.037Z,99129.13
2023-05-20T07:25:55.962Z,99120.19
2023-05-20T07:28:41.418Z,99117.63
2023-05-20T07:31:27.147Z,98974.47
2023-05-20T07:34:12.721Z,98979.59
2023-05-20T07:36:59.900Z,99089.03
2023-05-20T07:39:45.322Z,98989.59
2023-05-20T07:42:30.766Z,99132.19
2023-05-20T07:45:19.153Z,99084.69
2023-05-20T07:48:05.134Z,99038.59
2023-05-20T07:50:50.898Z,98956.59
2023-05-20T07:53:38.770Z,99117.59
2023-05-20T07:56:24.804Z,99074.00
2023-05-20T07:59:10.350Z,99120.19
2023-05-20T08:02:01.110Z,99112.53
2023-05-20T08:04:47.295Z,99000.56
2023-05-20T08:07:32.658Z,98971.50
2023-05-20T08:10:18.333Z,99111.19
2023-05-20T08:13:05.686Z,98966.66
2023-05-20T08:15:55.957Z,99024.22
2023-05-20T08:18:42.931Z,99059.63
2023-05-20T08:21:28.796Z,98982.63
2023-05-20T08:24:14.789Z,99088.19
2023-05-20T08:27:00.800Z,99089.84
2023-05-20T08:29:46.111Z,98929.91
2023-05-20T08:32:31.720Z,99083.16
2023-05-20T08:35:17.836Z,98946.34
2023-05-20T08:38:03.064Z,99081.00
2023-05-20T08:40:56.497Z,99103.75
2023-05-20T08:43:42.641Z,99054.94
2023-05-20T08:46:30.219Z,98944.47
2023-05-20T08:49:16.153Z,98942.09
2023-05-20T08:52:03.283Z,98970.22
2023-05-20T08:54:51.574Z,99049.25
2023-05-20T08:57:38.325Z,99059.19
2023-05-20T09:00:28.714Z,98940.34
2023-05-20T09:03:14.414Z,98937.63
2023-05-20T09:06:09.548Z,98962.56
2023-05-20T09:08:55.200Z,99092.09
2023-05-20T09:11:41.599Z,99112.41
2023-05-20T09:14:29.919Z,99058.66
2023-05-20T09:17:15.847Z,98940.56
2023-05-20T09:20:01.633Z,99051.47
2023-05-20T09:22:46.899Z,98996.47
2023-05-20T09:25:34.421Z,99079.16
2023-05-20T09:28:24.140Z,99019.22
2023-05-20T09:31:09.797Z,99009.00
2023-05-20T09:33:55.809Z,98988.97
2023-05-20T09:36:44.389Z,99058.56
2023-05-20T09:39:37.022Z,98917.59
2023-05-20T09:42:26.605Z,98946.72
2023-05-20T09:45:11.814Z,99070.50
2023-05-20T09:47:58.207Z,99028.81
2023-05-20T09:50:43.781Z,98928.25
2023-05-20T09:53:29.120Z,99089.38
2023-05-20T09:56:15.172Z,99003.91
2023-05-20T09:59:02.559Z,99029.34
2023-05-20T10:01:48.257Z,98921.44
2023-05-20T10:04:37.270Z,99055.75
2023-05-20T10:07:44.332Z,99055.38
2023-05-20T10:10:51.065Z,99058.38
2023-05-20T10:14:04.950Z,99045.06
2023-05-20T10:17:08.845Z,99043.41
2023-05-20T10:19:59.736Z,98890.69
2023-05-20T10:22:56.059Z,99005.56
2023-05-20T10:25:54.031Z,99036.56
2023-05-20T10:28:41.669Z,99006.34
2023-05-20T10:31:28.011Z,99025.25
2023-05-20T10:34:18.146Z,99030.34
2023-05-20T10:37:04.366Z,99037.28
2023-05-20T10:39:49.628Z,99040.78
2023-05-20T10:42:35.016Z,99043.66
2023-05-20T10:45:28.772Z,98972.44
2023-05-20T10:48:34.528Z,99025.66
2023-05-20T10:51:21.285Z,98992.47
2023-05-20T10:54:09.651Z,99018.06
2023-05-20T10:56:55.641Z,98897.72
2023-05-20T10:59:41.783Z,98861.97
2023-05-20T11:02:28.694Z,99007.38
2023-05-20T11:05:17.056Z,98970.72
2023-05-20T11:08:08.011Z,98861.97
2023-05-20T11:10:57.442Z,98936.31
2023-05-20T11:13:43.205Z,98977.34
2023-05-20T11:16:28.982Z,98986.72
2023-05-20T11:19:16.421Z,98999.72
2023-05-20T11:22:01.907Z,98952.09
2023-05-20T11:24:47.506Z,98963.97
2023-05-20T11:27:34.288Z,98988.66
2023-05-20T11:30:20.751Z,98907.34
2023-05-20T11:33:06.903Z,98986.72
2023-05-20T11:35:54.098Z,98989.88
2023-05-20T11:38:43.246Z,98988.19
2023-05-20T11:41:29.728Z,98986.97
2023-05-20T11:44:15.927Z,98976.28
2023-05-20T11:47:03.682Z,98976.22
2023-05-20T11:49:50.006Z,98941.72
2023-05-20T11:52:35.391Z,98950.53
2023-05-20T11:55:21.016Z,98962.00
2023-05-20T11:58:06.679Z,98834.69
2023-05-20T12:00:57.165Z,98835.09
2023-05-20T12:03:51.427Z,98914.03
2023-05-20T12:06:40.058Z,98956.56
2023-05-20T12:09:26.796Z,98934.41
2023-05-20T12:12:14.786Z,98925.28
2023-05-20T12:15:00.694Z,98851.41
2023-05-20T12:17:52.766Z,98816.69
2023-05-20T12:20:39.328Z,98955.56
2023-05-20T12:23:25.055Z,98790.78
2023-05-20T12:26:11.401Z,98943.38
2023-05-20T12:28:57.772Z,98962.41
2023-05-20T12:31:44.077Z,98871.56
2023-05-20T12:34:30.516Z,98880.50
2023-05-20T12:37:16.435Z,98942.88
2023-05-20T12:40:02.096Z,98806.66
2023-05-20T12:42:48.668Z,98929.00
2023-05-20T12:45:34.352Z,98937.59
2023-05-20T12:48:20.086Z,98936.41
2023-05-20T12:51:06.475Z,98912.75
2023-05-20T12:53:51.985Z,98843.78
2023-05-20T12:56:37.225Z,98788.84
2023-05-20T12:59:22.815Z,98874.44
2023-05-20T13:02:08.254Z,98777.16
2023-05-20T13:04:54.309Z,98885.53
2023-05-20T13:07:40.226Z,98899.31
2023-05-20T13:10:25.757Z,98814.91
2023-05-20T13:13:11.363Z,98892.28
2023-05-20T13:15:58.091Z,98896.47
2023-05-20T13:18:44.657Z,98889.22
2023-05-20T13:21:31.819Z,98775.66
2023-05-20T13:24:18.122Z,98883.69
2023-05-20T13:27:03.921Z,98802.66
2023-05-20T13:29:49.491Z,98734.19
2023-05-20T13:32:35.041Z,98727.16
2023-05-20T13:35:22.100Z,98866.03
2023-05-20T13:38:08.197Z,98846.97
2023-05-20T13:40:53.685Z,98860.22
2023-05-20T13:43:42.107Z,98732.22
2023-05-20T13:46:27.736Z,98866.41
2023-05-20T13:49:12.864Z,98860.00
2023-05-20T13:51:58.541Z,98845.72
2023-05-20T13:54:46.791Z,98846.66
2023-05-20T13:57:32.441Z,98846.78
2023-05-20T14:00:18.067Z,98735.91
2023-05-20T14:03:05.018Z,98802.13
2023-05-20T14:05:51.325Z,98777.69
2023-05-20T14:08:36.926Z,98851.06
2023-05-20T14:11:22.394Z,98840.28
2023-05-20T14:14:07.808Z,98823.19
2023-05-20T14:16:53.551Z,98870.19
2023-05-20T14:19:38.986Z,98722.72
2023-05-20T14:22:24.791Z,98855.28
2023-05-20T14:25:10.021Z,98847.53
2023-05-20T14:27:55.455Z,98819.34
2023-05-20T14:30:40.837Z,98712.94
2023-05-20T14:33:26.151Z,98706.69
2023-05-20T14:36:13.075Z,98825.50
2023-05-20T14:38:59.587Z,98702.50
2023-05-20T14:41:45.098Z,98719.84
2023-05-20T14:44:31.352Z,98844.63
2023-05-20T14:47:19.321Z,98728.03
2023-05-20T14:50:05.412Z,98843.19
2023-05-20T14:52:51.380Z,98849.06
2023-05-20T14:55:37.058Z,98840.56
2023-05-20T14:58:22.678Z,98847.47
2023-05-20T15:01:08.115Z,98806.56
2023-05-20T15:03:54.132Z,98795.59
2023-05-20T15:06:39.598Z,98703.94
2023-05-20T15:09:25.275Z,98698.16
2023-05-20T15:12:11.324Z,98707.56
2023-05-20T15:14:56.883Z,98718.84
2023-05-20T15:17:42.569Z,98672.63
2023-05-20T15:20:28.866Z,98725.84
2023-05-20T15:23:14.132Z,98689.50
2023-05-20T15:25:59.752Z,98813.59
2023-05-20T15:28:45.568Z,98815.91
2023-05-20T15:31:31.503Z,98748.31
2023-05-20T15:34:18.345Z,98706.91
2023-05-20T15:37:04.373Z,98819.38
2023-05-20T15:39:50.055Z,98744.25
2023-05-20T15:42:35.926Z,98793.06
2023-05-20T15:45:21.863Z,98740.63
2023-05-20T15:48:08.694Z,98735.41
2023-05-20T15:50:54.035Z,98789.75
2023-05-20T15:53:40.805Z,98820.56
2023-05-20T15:56:26.356Z,98794.94
2023-05-20T15:59:11.690Z,98778.94
2023-05-20T16:01:56.999Z,98716.69
2023-05-20T16:04:42.451Z,98790.53
2023-05-20T16:07:28.081Z,98685.63
2023-05-20T16:10:13.621Z,98761.94
2023-05-20T16:13:03.089Z,98806.94
2023-05-20T16:15:50.062Z,98731.63
2023-05-20T16:18:35.432Z,98706.78
2023-05-20T16:21:21.195Z,98770.22
2023-05-20T16:24:06.849Z,98790.66
2023-05-20T16:26:54.011Z,98712.16
2023-05-20T16:29:39.952Z,98817.34
2023-05-20T16:32:27.066Z,98820.69
2023-05-20T16:35:14.313Z,98798.78
2023-05-20T16:38:01.577Z,98831.88
2023-05-20T16:40:47.246Z,98678.00
2023-05-20T16:43:32.766Z,98822.44
2023-05-20T16:46:18.180Z,98677.84
2023-05-20T16:49:03.756Z,98675.69
2023-05-20T16:51:52.176Z,98679.72
2023-05-20T16:54:38.140Z,98715.03
2023-05-20T16:57:23.852Z,98733.97
2023-05-20T17:00:11.479Z,98783.09
2023-05-20T17:02:56.796Z,98816.19
2023-05-20T17:05:43.723Z,98806.66
2023-05-20T17:08:29.934Z,98808.75
2023-05-20T17:11:16.668Z,98803.13
2023-05-20T17:14:03.016Z,98806.28
2023-05-20T17:16:48.685Z,98840.19
2023-05-20T17:19:34.086Z,98815.97
2023-05-20T17:22:19.736Z,98820.03
2023-05-20T17:25:05.876Z,98774.25
2023-05-20T17:27:51.390Z,98781.91
2023-05-20T17:30:37.051Z,98815.59
2023-05-20T17:33:22.921Z,98796.28
2023-05-20T17:36:08.754Z,98732.66
2023-05-20T17:38:54.290Z,98767.72
2023-05-20T17:41:40.926Z,98797.41
2023-05-20T17:44:28.177Z,98817.56
2023-05-20T17:47:14.692Z,98722.75
2023-05-20T17:50:02.351Z,98813.38
2023-05-20T17:52:47.884Z,98812.41
2023-05-20T17:55:36.324Z,98771.41
2023-05-20T17:58:24.887Z,98749.06
2023-05-20T18:01:10.309Z,98810.59
2023-05-20T18:03:57.391Z,98835.09
2023-05-20T18:06:43.126Z,98709.34
2023-05-20T18:09:28.510Z,98687.16
2023-05-20T18:12:14.628Z,98822.09
2023-05-20T18:15:00.167Z,98804.59
2023-05-20T18:17:45.966Z,98839.13
2023-05-20T18:20:31.828Z,98722.19
2023-05-20T18:23:17.312Z,98694.34
2023-05-20T18:26:06.944Z,98745.63
2023-05-20T18:28:52.414Z,98729.75
2023-05-20T18:31:38.550Z,98693.56
2023-05-20T18:34:24.157Z,98706.28
2023-05-20T18:37:09.758Z,98806.19
2023-05-20T18:39:57.119Z,98854.16
2023-05-20T18:42:42.381Z,98852.69
2023-05-20T18:45:27.702Z,98726.50
2023-05-20T18:48:17.927Z,98750.63
2023-05-20T18:51:11.656Z,98834.75
2023-05-20T18:53:57.094Z,98730.72
2023-05-20T18:56:42.389Z,98853.63
2023-05-20T18:59:27.916Z,98772.75
2023-05-20T19:02:14.578Z,98759.22
2023-05-20T19:05:01.582Z,98852.19
2023-05-20T19:07:47.281Z,98796.94
2023-05-20T19:10:32.976Z,98698.38
2023-05-20T19:13:21.757Z,98812.72
2023-05-20T19:16:07.752Z,98839.09
2023-05-20T19:18:53.187Z,98849.09
2023-05-20T19:21:41.921Z,98662.88
2023-05-20T19:24:29.035Z,98839.09
2023-05-20T19:27:14.267Z,98778.84
2023-05-20T19:29:59.926Z,98735.94
2023-05-20T19:32:45.534Z,98837.97
2023-05-20T19:35:31.861Z,98856.66
2023-05-20T19:38:17.829Z,98841.13
2023-05-20T19:41:03.310Z,98703.78
2023-05-20T19:43:49.318Z,98843.88
2023-05-20T19:46:36.322Z,98846.03
2023-05-20T19:49:22.237Z,98683.81
2023-05-20T19:52:07.869Z,98723.88
2023-05-20T19:54:53.453Z,98744.06
2023-05-20T19:57:38.840Z,98842.50
2023-05-20T20:00:24.352Z,98692.66
2023-05-20T20:03:09.801Z,98712.72
2023-05-20T20:05:55.474Z,98696.22
2023-05-20T20:08:41.645Z,98855.94
2023-05-20T20:11:27.329Z,98855.00
2023-05-20T20:14:13.229Z,98700.84
2023-05-20T20:16:59.856Z,98862.16
2023-05-20T20:19:50.215Z,98853.16
2023-05-20T20:22:38.871Z,98861.28
2023-05-20T20:25:26.865Z,98706.38
2023-05-20T20:28:12.658Z,98675.06
2023-05-20T20:30:58.711Z,98855.38
2023-05-20T20:33:44.237Z,98695.78
2023-05-20T20:36:32.089Z,98698.00
2023-05-20T20:39:20.978Z,98816.69
2023-05-20T20:42:06.563Z,98833.19
2023-05-20T20:44:52.983Z,98853.84
2023-05-20T20:47:40.962Z,98840.34
2023-05-20T20:50:28.285Z,98866.47
2023-05-20T20:53:16.440Z,98705.50
2023-05-20T20:56:01.629Z,98856.31
2023-05-20T20:58:47.042Z,98819.41
2023-05-20T21:01:36.403Z,98733.16
2023-05-20T21:04:21.898Z,98721.47
2023-05-20T21:07:07.298Z,98717.81
2023-05-20T21:09:55.150Z,98841.34
2023-05-20T21:12:40.574Z,98859.84
2023-05-20T21:15:27.332Z,98700.22
2023-05-20T21:18:14.025Z,98859.38
2023-05-20T21:20:59.475Z,98754.09
2023-05-20T21:23:44.925Z,98852.41
2023-05-20T21:26:30.104Z,98709.25
2023-05-20T21:29:15.697Z,98707.53
2023-05-20T21:32:01.131Z,98712.75
2023-05-20T21:34:46.176Z,98859.72
2023-05-20T21:37:31.771Z,98858.63
2023-05-20T21:40:17.295Z,98855.19
2023-05-20T21:43:02.793Z,98858.06
2023-05-20T21:45:48.078Z,98860.19
2023-05-20T21:48:33.420Z,98824.28
2023-05-20T21:51:18.845Z,98707.66
2023-05-20T21:54:04.099Z,98877.44
2023-05-20T21:56:49.573Z,98693.53
2023-05-20T21:59:34.995Z,98773.28
2023-05-20T22:02:20.616Z,98851.31
2023-05-20T22:05:06.510Z,98842.00
2023-05-20T22:07:53.002Z,98840.91
2023-05-20T22:10:38.783Z,98711.66
2023-05-20T22:13:26.128Z,98686.75
2023-05-20T22:16:11.817Z,98842.66
2023-05-20T22:18:57.350Z,98676.16
2023-05-20T22:21:50.079Z,98808.28
2023-05-20T22:24:36.356Z,98833.47
2023-05-20T22:27:21.690Z,98811.31
2023-05-20T22:30:08.328Z,98673.88
2023-05-20T22:32:53.851Z,98850.03
2023-05-20T22:35:39.137Z,98845.25
2023-05-20T22:38:24.662Z,98767.69
2023-05-20T22:41:10.370Z,98783.00
2023-05-20T22:43:57.079Z,98816.91
2023-05-20T22:46:42.514Z,98814.31
2023-05-20T22:49:28.388Z,98836.56
2023-05-20T22:52:13.668Z,98830.56
2023-05-20T22:54:59.000Z,98696.50
2023-05-20T22:57:44.376Z,98835.16
2023-05-20T23:00:29.782Z,98777.56
2023-05-20T23:03:15.204Z,98830.25
2023-05-20T23:06:00.992Z,98870.19
2023-05-20T23:08:47.409Z,98671.31
2023-05-20T23:11:33.143Z,98712.94
2023-05-20T23:14:19.951Z,98825.31
2023-05-20T23:17:05.576Z,98684.25
2023-05-20T23:19:51.502Z,98780.75
2023-05-20T23:22:37.614Z,98669.13
2023-05-20T23:25:24.442Z,98891.28
2023-05-20T23:28:10.017Z,98838.59
2023-05-20T23:30:56.595Z,98698.63
2023-05-20T23:33:42.468Z,98695.22
2023-05-20T23:36:34.416Z,98837.13
2023-05-20T23:39:19.620Z,98665.88
2023-05-20T23:42:05.386Z,98776.34
2023-05-20T23:44:50.690Z,98826.81
2023-05-20T23:47:36.535Z,98794.50
2023-05-20T23:50:21.999Z,98830.63
2023-05-20T23:53:07.258Z,98783.22
2023-05-20T23:55:52.762Z,98820.50
2023-05-20T23:58:38.124Z,98756.59
